Accueil
METAR-TAF:

METAR-TAF

Aéroports :

Honiara, Guadalcanal, Iles Salomon

Aéroport international de Honiara

latitude: 09-25S, longitude: 160-03E, altitude: 8 m

Observation

Le bulletin a été fait il y a 48 minutes, à 13:00 UTC
Vent 3 kt de sud/sud-est
Température 22°C
Humidité 94%
Pression 1011 hPa
Visibilité 10 km ou plus
Quelques nuages à une hauteur de 1500 ft
Nuages épars à une hauteur de 30000 ft
brume sèche

METAR: AGGH 211300Z 16003KT 9999 HZ FEW015 SCT300 22/21 Q1011

Heure: 00:48 (13:48 UTC)

Prévision

Le bulletin a été fait il y a 2 heures et 56 minutes, à 10:52 UTC
Prévision valable du 21 à 12 UTC au 22 à 12 UTC
Vent 3 kt de direction variable
Visibilité: 1011 m
Quelques nuages à une hauteur de 1600 ft
Nuages épars à une hauteur de 10000 ft

TAF: AGGH 211052Z 2112/2212 VRB03KT 9999 FEW016 SCT100 T 26 24 23 27 Q 1011 1010 1010 1011

Observations et prévisions météorologiques de plus de 4000 aéroports (messages METAR et TAF).

Les stations disponibles sont représentées par des disques jaunes et rouges sur la carte.

Passer la souris dessus pour voir le nom de la station.

Cliquer dessus pour voir les observations et prévisions météorologiques.

Pour changer de carte: cliquez sur les boutons verts avec une croix noire pour zoomer, sur le bouton vert avec un tiret pour effectuer un zoom arrière, ou sur les flèches vertes pour les cartes adjacentes.


METAR-TAF: